createdAt,value
2019-03-22T00:02:34.764Z,96.80
2019-03-22T00:05:39.213Z,96.70
2019-03-22T00:08:43.652Z,96.70
2019-03-22T00:11:48.073Z,96.60
2019-03-22T00:14:52.568Z,96.80
2019-03-22T00:17:56.950Z,96.80
2019-03-22T00:21:01.713Z,96.90
2019-03-22T00:24:06.446Z,97.00
2019-03-22T00:27:16.367Z,96.80
2019-03-22T00:30:17.447Z,96.60
2019-03-22T00:33:21.886Z,96.50
2019-03-22T00:36:26.596Z,96.80
2019-03-22T00:39:31.041Z,97.10
2019-03-22T00:42:35.482Z,97.20
2019-03-22T00:45:39.921Z,97.40
2019-03-22T00:48:44.699Z,97.50
2019-03-22T00:51:49.130Z,97.50
2019-03-22T00:54:53.573Z,97.40
2019-03-22T00:57:57.997Z,97.30
2019-03-22T01:01:02.435Z,97.20
2019-03-22T01:04:06.875Z,97.30
2019-03-22T01:07:11.774Z,97.40
2019-03-22T01:10:16.270Z,97.30
2019-03-22T01:13:20.702Z,97.40
2019-03-22T01:16:25.142Z,97.30
2019-03-22T01:19:29.639Z,97.40
2019-03-22T01:22:34.015Z,97.70
2019-03-22T01:25:38.451Z,97.80
2019-03-22T01:28:43.127Z,97.60
2019-03-22T01:31:47.855Z,97.50
2019-03-22T01:34:52.595Z,97.60
2019-03-22T01:37:57.326Z,97.40
2019-03-22T01:41:01.760Z,97.60
2019-03-22T01:44:06.482Z,97.70
2019-03-22T01:47:10.923Z,98.00
2019-03-22T01:50:19.172Z,97.90
2019-03-22T01:53:23.597Z,98.00
2019-03-22T01:56:28.367Z,97.90
2019-03-22T01:59:33.095Z,97.60
2019-03-22T02:02:37.528Z,97.30
2019-03-22T02:05:47.726Z,97.60
2019-03-22T02:08:52.529Z,97.80
2019-03-22T02:11:57.245Z,98.10
2019-03-22T02:15:01.977Z,98.10
2019-03-22T02:18:06.701Z,98.10
2019-03-22T02:21:11.437Z,98.20
2019-03-22T02:24:16.169Z,98.10
2019-03-22T02:27:20.594Z,98.30
2019-03-22T02:30:25.026Z,98.30
2019-03-22T02:33:29.462Z,98.30
2019-03-22T02:36:33.900Z,98.50
2019-03-22T02:39:38.389Z,98.50
2019-03-22T02:42:42.944Z,98.40
2019-03-22T02:45:47.854Z,98.80
2019-03-22T02:48:52.275Z,98.50
2019-03-22T02:51:57.004Z,98.40
2019-03-22T02:55:01.460Z,98.40
2019-03-22T02:58:19.872Z,98.40
2019-03-22T03:01:12.182Z,98.30
2019-03-22T03:04:16.617Z,98.50
2019-03-22T03:07:21.370Z,98.60
2019-03-22T03:10:26.312Z,98.70
2019-03-22T03:13:30.736Z,98.80
2019-03-22T03:16:35.765Z,98.70
2019-03-22T03:19:40.443Z,98.50
2019-03-22T03:22:44.946Z,98.30
2019-03-22T03:25:49.370Z,98.30
2019-03-22T03:28:54.261Z,98.30
2019-03-22T03:31:58.701Z,98.50
2019-03-22T03:35:03.156Z,98.40
2019-03-22T03:38:08.068Z,98.20
2019-03-22T03:41:12.998Z,98.10
2019-03-22T03:44:17.428Z,98.30
2019-03-22T03:47:21.977Z,98.50
2019-03-22T03:50:26.397Z,98.70
2019-03-22T03:53:30.829Z,98.40
2019-03-22T03:56:35.288Z,98.40
2019-03-22T03:59:39.704Z,98.80
2019-03-22T04:02:44.890Z,99.00
2019-03-22T04:05:49.633Z,98.90
2019-03-22T04:08:54.070Z,98.60
2019-03-22T04:11:58.778Z,98.60
2019-03-22T04:15:03.470Z,98.40
2019-03-22T04:18:07.908Z,98.50
2019-03-22T04:21:12.346Z,98.80
2019-03-22T04:24:16.788Z,99.00
2019-03-22T04:27:21.229Z,99.10
2019-03-22T04:30:25.663Z,98.90
2019-03-22T04:33:30.102Z,99.00
2019-03-22T04:36:34.876Z,99.10
2019-03-22T04:39:39.316Z,98.80
2019-03-22T04:42:43.764Z,99.00
2019-03-22T04:45:48.831Z,98.80
2019-03-22T04:48:54.154Z,99.00
2019-03-22T04:51:59.118Z,99.20
2019-03-22T04:55:05.306Z,99.00
2019-03-22T04:58:12.308Z,99.30
2019-03-22T05:01:18.469Z,99.20
2019-03-22T05:04:25.585Z,98.80
2019-03-22T05:07:30.894Z,99.10
2019-03-22T05:10:37.262Z,99.00
2019-03-22T05:13:44.334Z,98.80
2019-03-22T05:16:50.947Z,98.60
2019-03-22T05:19:58.121Z,98.60
2019-03-22T05:23:04.374Z,98.70
2019-03-22T05:26:09.733Z,98.50
2019-03-22T05:29:15.118Z,99.00
2019-03-22T05:32:19.607Z,98.80
2019-03-22T05:35:24.053Z,99.20
2019-03-22T05:38:28.742Z,99.20
2019-03-22T05:41:33.173Z,98.90
2019-03-22T05:44:37.899Z,99.50
2019-03-22T05:47:42.349Z,99.50
2019-03-22T05:50:46.777Z,99.30
2019-03-22T05:53:51.472Z,99.50
2019-03-22T05:56:55.911Z,99.70
2019-03-22T06:00:00.354Z,99.90
2019-03-22T06:03:05.163Z,99.90
2019-03-22T06:06:09.596Z,99.90
2019-03-22T06:09:14.037Z,99.60
2019-03-22T06:12:18.463Z,99.80
2019-03-22T06:15:22.903Z,99.70
2019-03-22T06:18:27.337Z,99.80
2019-03-22T06:21:31.783Z,99.50
2019-03-22T06:24:36.532Z,99.20
2019-03-22T06:27:40.966Z,97.90
2019-03-22T06:30:45.791Z,95.90
2019-03-22T06:33:50.222Z,93.70
2019-03-22T06:36:54.943Z,91.80
2019-03-22T06:39:59.678Z,89.80
2019-03-22T06:43:04.405Z,86.00
2019-03-22T06:46:09.132Z,83.60
2019-03-22T06:49:13.574Z,80.40
2019-03-22T06:52:18.022Z,75.20
2019-03-22T06:55:22.473Z,69.90
2019-03-22T06:58:26.915Z,66.10
2019-03-22T07:01:31.770Z,63.10
2019-03-22T07:04:36.493Z,60.40
2019-03-22T07:07:41.232Z,58.90
2019-03-22T07:10:45.667Z,56.90
2019-03-22T07:13:50.378Z,53.20
2019-03-22T07:16:54.851Z,51.00
2019-03-22T07:19:59.354Z,52.30
2019-03-22T07:23:04.058Z,54.20
2019-03-22T07:26:08.786Z,54.10
2019-03-22T07:29:13.232Z,57.40
2019-03-22T07:32:17.691Z,62.30
2019-03-22T07:35:22.485Z,68.40
2019-03-22T07:38:26.918Z,74.00
2019-03-22T07:41:31.626Z,79.00
2019-03-22T07:44:36.358Z,81.30
2019-03-22T07:47:41.089Z,84.90
2019-03-22T07:50:45.819Z,89.10
2019-03-22T07:53:50.254Z,88.00
2019-03-22T07:56:54.971Z,89.60
2019-03-22T07:59:59.410Z,89.60
2019-03-22T08:03:04.123Z,89.20
2019-03-22T08:06:08.575Z,88.80
2019-03-22T08:09:13.001Z,89.90
2019-03-22T08:12:19.491Z,87.80
2019-03-22T08:15:30.063Z,89.40
2019-03-22T08:18:34.741Z,89.60
2019-03-22T08:21:39.213Z,88.90
2019-03-22T08:24:43.647Z,90.40
2019-03-22T08:27:48.060Z,89.60
2019-03-22T08:30:52.868Z,88.90
2019-03-22T08:33:57.575Z,89.10
2019-03-22T08:37:02.012Z,90.00
2019-03-22T08:40:08.169Z,90.10
2019-03-22T08:43:12.611Z,86.20
2019-03-22T08:46:17.058Z,87.20
2019-03-22T08:49:21.878Z,87.40
2019-03-22T08:52:26.504Z,84.60
2019-03-22T08:55:30.941Z,85.90
2019-03-22T08:58:35.410Z,86.70
2019-03-22T09:01:39.819Z,84.90
2019-03-22T09:04:44.581Z,82.60
2019-03-22T09:07:49.091Z,82.20
2019-03-22T09:10:53.554Z,81.10
2019-03-22T09:13:58.565Z,80.10
2019-03-22T09:17:03.042Z,79.90
2019-03-22T09:20:11.701Z,77.30
2019-03-22T09:23:16.159Z,78.10
2019-03-22T09:26:20.595Z,78.50
2019-03-22T09:29:25.303Z,74.60
2019-03-22T09:32:30.022Z,76.50
2019-03-22T09:35:34.465Z,75.20
2019-03-22T09:38:38.991Z,76.00
2019-03-22T09:41:43.409Z,75.10
2019-03-22T09:44:48.910Z,76.80
2019-03-22T09:47:53.618Z,74.50
2019-03-22T09:50:58.357Z,75.00
2019-03-22T09:54:03.060Z,74.90
2019-03-22T09:57:07.977Z,74.10
2019-03-22T10:00:29.153Z,73.90
2019-03-22T10:03:33.549Z,74.30
2019-03-22T10:06:38.266Z,72.70
2019-03-22T10:09:42.684Z,73.70
2019-03-22T10:12:47.136Z,72.60
2019-03-22T10:15:51.924Z,71.10
2019-03-22T10:18:56.378Z,70.10
2019-03-22T10:22:01.087Z,72.70
2019-03-22T10:25:08.047Z,72.00
2019-03-22T10:28:12.790Z,68.70
2019-03-22T10:31:17.237Z,67.40
2019-03-22T10:34:22.104Z,67.00
2019-03-22T10:37:26.904Z,69.30
2019-03-22T10:40:31.660Z,66.90
2019-03-22T10:43:36.409Z,65.70
2019-03-22T10:46:41.176Z,61.70
2019-03-22T10:49:45.989Z,60.80
2019-03-22T10:52:50.448Z,63.80
2019-03-22T10:55:55.162Z,59.80
2019-03-22T10:58:59.895Z,59.40
2019-03-22T11:02:07.679Z,58.20
2019-03-22T11:05:11.303Z,57.30
2019-03-22T11:08:16.039Z,58.60
2019-03-22T11:11:20.482Z,59.00
2019-03-22T11:14:24.935Z,57.90
2019-03-22T11:17:29.379Z,55.10
2019-03-22T11:20:33.873Z,55.00
2019-03-22T11:23:38.334Z,54.50
2019-03-22T11:26:43.085Z,54.00
2019-03-22T11:29:47.812Z,53.60
2019-03-22T11:32:52.544Z,51.60
2019-03-22T11:35:57.000Z,52.00
2019-03-22T11:39:03.897Z,51.50
2019-03-22T11:42:07.667Z,49.60
2019-03-22T11:45:20.460Z,50.90
2019-03-22T11:48:24.897Z,49.40
2019-03-22T11:51:29.753Z,51.20
2019-03-22T11:54:34.466Z,49.10
2019-03-22T11:57:39.298Z,48.10
2019-03-22T12:00:44.024Z,46.10
2019-03-22T12:03:48.493Z,46.50
2019-03-22T12:06:52.945Z,49.50
2019-03-22T12:09:57.709Z,45.70
2019-03-22T12:13:02.152Z,45.50
2019-03-22T12:16:06.966Z,46.20
2019-03-22T12:19:11.408Z,46.80
2019-03-22T12:22:15.870Z,46.30
2019-03-22T12:25:25.791Z,45.80
2019-03-22T12:28:30.604Z,44.90
2019-03-22T12:31:35.054Z,45.80
2019-03-22T12:34:39.516Z,44.40
2019-03-22T12:37:44.595Z,48.10
2019-03-22T12:40:49.046Z,48.00
2019-03-22T12:43:53.736Z,47.60
2019-03-22T12:46:58.480Z,46.70
2019-03-22T12:50:03.209Z,46.40
2019-03-22T12:53:07.939Z,44.20
2019-03-22T12:56:12.398Z,43.10
2019-03-22T12:59:16.839Z,45.10
2019-03-22T13:02:21.632Z,46.40
2019-03-22T13:05:26.857Z,43.70
2019-03-22T13:08:31.273Z,44.80
2019-03-22T13:11:35.726Z,41.60
2019-03-22T13:14:40.436Z,43.30
2019-03-22T13:17:44.882Z,42.50
2019-03-22T13:20:51.092Z,44.10
2019-03-22T13:23:55.955Z,42.50
2019-03-22T13:27:00.401Z,43.00
2019-03-22T13:30:29.581Z,42.60
2019-03-22T13:33:34.315Z,39.90
2019-03-22T13:36:38.757Z,41.00
2019-03-22T13:39:43.469Z,40.30
2019-03-22T13:42:47.921Z,41.70
2019-03-22T13:45:52.368Z,43.00
2019-03-22T13:48:57.195Z,39.80
2019-03-22T13:52:01.611Z,40.60
2019-03-22T13:55:07.768Z,40.80
2019-03-22T13:58:12.213Z,40.60
2019-03-22T14:01:16.996Z,39.40
2019-03-22T14:04:21.726Z,38.60
2019-03-22T14:07:26.459Z,38.80
2019-03-22T14:10:36.316Z,38.10
2019-03-22T14:13:40.754Z,38.50
2019-03-22T14:16:45.212Z,40.30
2019-03-22T14:19:49.646Z,37.90
2019-03-22T14:22:54.418Z,37.30
2019-03-22T14:25:58.862Z,37.70
2019-03-22T14:29:03.312Z,37.60
2019-03-22T14:32:08.501Z,39.20
2019-03-22T14:35:13.239Z,39.50
2019-03-22T14:38:17.675Z,37.50
2019-03-22T14:41:22.395Z,38.90
2019-03-22T14:44:28.273Z,39.20
2019-03-22T14:47:32.844Z,40.20
2019-03-22T14:50:37.284Z,40.00
2019-03-22T14:53:41.730Z,40.90
2019-03-22T14:56:46.555Z,42.90
2019-03-22T14:59:58.541Z,41.20
2019-03-22T15:02:57.757Z,42.60
2019-03-22T15:06:02.488Z,41.20
2019-03-22T15:09:08.272Z,41.70
2019-03-22T15:12:12.802Z,42.90
2019-03-22T15:15:17.007Z,42.50
2019-03-22T15:18:33.289Z,40.50
2019-03-22T15:21:55.751Z,38.30
2019-03-22T15:25:05.944Z,39.30
2019-03-22T15:28:27.231Z,40.20
2019-03-22T15:31:49.655Z,41.00
2019-03-22T15:35:12.193Z,38.80
2019-03-22T15:38:33.525Z,42.00
2019-03-22T15:41:38.355Z,39.20
2019-03-22T15:44:43.089Z,40.20
2019-03-22T15:47:47.817Z,39.30
2019-03-22T15:50:52.551Z,40.20
2019-03-22T15:53:57.277Z,41.40
2019-03-22T15:57:01.912Z,42.00
2019-03-22T16:00:11.245Z,44.60
2019-03-22T16:03:15.985Z,43.90
2019-03-22T16:06:20.562Z,43.50
2019-03-22T16:09:25.015Z,42.70
2019-03-22T16:12:29.762Z,43.90
2019-03-22T16:15:34.493Z,43.70
2019-03-22T16:18:38.940Z,43.40
2019-03-22T16:21:43.649Z,44.90
2019-03-22T16:24:48.381Z,43.90
2019-03-22T16:27:52.824Z,44.50
2019-03-22T16:30:57.267Z,45.10
2019-03-22T16:34:02.059Z,45.60
2019-03-22T16:37:06.502Z,45.90
2019-03-22T16:40:23.657Z,45.80
2019-03-22T16:43:20.295Z,46.40
2019-03-22T16:46:24.733Z,46.90
2019-03-22T16:49:29.192Z,46.70
2019-03-22T16:52:33.637Z,47.80
2019-03-22T16:55:38.097Z,48.90
2019-03-22T16:58:42.555Z,48.10
2019-03-22T17:01:46.994Z,48.30
2019-03-22T17:04:51.832Z,47.80
2019-03-22T17:07:56.276Z,49.10
2019-03-22T17:11:00.979Z,51.70
2019-03-22T17:14:06.008Z,55.30
2019-03-22T17:17:10.553Z,53.90
2019-03-22T17:20:15.342Z,50.40
2019-03-22T17:23:20.112Z,50.30
2019-03-22T17:26:24.846Z,52.60
2019-03-22T17:29:29.287Z,51.60
2019-03-22T17:32:33.991Z,54.30
2019-03-22T17:35:38.730Z,54.80
2019-03-22T17:38:43.180Z,55.80
2019-03-22T17:41:47.618Z,56.60
2019-03-22T17:44:52.405Z,58.40
2019-03-22T17:47:57.137Z,59.50
2019-03-22T17:51:01.858Z,61.40
2019-03-22T17:54:06.310Z,63.40
2019-03-22T17:57:18.395Z,64.70
2019-03-22T18:00:20.631Z,64.70
2019-03-22T18:03:25.389Z,66.00
2019-03-22T18:06:29.849Z,66.50
2019-03-22T18:09:34.300Z,66.80
2019-03-22T18:12:39.067Z,68.20
2019-03-22T18:15:43.805Z,69.70
2019-03-22T18:18:48.561Z,69.60
2019-03-22T18:21:54.595Z,69.50
2019-03-22T18:24:59.105Z,70.30
2019-03-22T18:28:03.551Z,71.20
2019-03-22T18:31:08.274Z,72.70
2019-03-22T18:34:12.749Z,74.20
2019-03-22T18:37:17.529Z,74.80
2019-03-22T18:40:21.977Z,75.60
2019-03-22T18:43:26.689Z,78.20
2019-03-22T18:46:31.145Z,79.80
2019-03-22T18:49:35.601Z,81.40
2019-03-22T18:52:40.041Z,81.30
2019-03-22T18:55:44.790Z,83.10
2019-03-22T18:58:49.521Z,83.40
2019-03-22T19:01:53.969Z,84.60
2019-03-22T19:04:58.684Z,84.90
2019-03-22T19:08:03.402Z,86.50
2019-03-22T19:11:08.138Z,85.50
2019-03-22T19:14:12.870Z,87.30
2019-03-22T19:17:17.318Z,87.40
2019-03-22T19:20:22.017Z,88.80
2019-03-22T19:23:26.458Z,89.10
2019-03-22T19:26:30.910Z,89.60
2019-03-22T19:29:35.710Z,90.10
2019-03-22T19:32:40.430Z,90.20
2019-03-22T19:35:44.883Z,90.80
2019-03-22T19:38:49.328Z,91.00
2019-03-22T19:41:53.778Z,91.10
2019-03-22T19:44:58.536Z,91.00
2019-03-22T19:48:02.985Z,91.00
2019-03-22T19:51:07.433Z,91.10
2019-03-22T19:54:11.876Z,91.80
2019-03-22T19:57:16.638Z,91.70
2019-03-22T20:00:21.575Z,92.20
2019-03-22T20:03:26.310Z,92.60
2019-03-22T20:06:30.753Z,92.60
2019-03-22T20:09:35.206Z,93.20
2019-03-22T20:12:39.647Z,93.50
2019-03-22T20:15:44.104Z,93.40
2019-03-22T20:18:48.537Z,93.50
2019-03-22T20:21:52.993Z,93.60
2019-03-22T20:24:57.442Z,93.70
2019-03-22T20:28:02.304Z,93.90
2019-03-22T20:31:06.752Z,94.10
2019-03-22T20:34:11.191Z,94.10
2019-03-22T20:37:15.626Z,94.20
2019-03-22T20:40:20.598Z,94.30
2019-03-22T20:43:25.046Z,94.30
2019-03-22T20:46:29.491Z,94.50
2019-03-22T20:49:33.919Z,94.70
2019-03-22T20:52:38.371Z,94.40
2019-03-22T20:55:43.142Z,94.60
2019-03-22T20:58:47.584Z,94.70
2019-03-22T21:01:52.300Z,94.60
2019-03-22T21:04:56.722Z,94.80
2019-03-22T21:08:01.166Z,95.00
2019-03-22T21:11:05.972Z,95.00
2019-03-22T21:14:10.398Z,95.20
2019-03-22T21:17:16.247Z,95.20
2019-03-22T21:20:20.877Z,95.10
2019-03-22T21:23:35.740Z,95.10
2019-03-22T21:26:31.477Z,95.10
2019-03-22T21:29:44.144Z,95.10
2019-03-22T21:32:45.602Z,95.30
2019-03-22T21:35:49.660Z,95.20
2019-03-22T21:38:54.111Z,95.20
2019-03-22T21:41:58.814Z,95.20
2019-03-22T21:45:03.954Z,95.40
2019-03-22T21:48:08.683Z,95.40
2019-03-22T21:51:13.107Z,95.30
2019-03-22T21:54:17.547Z,95.60
2019-03-22T21:57:21.990Z,95.60
2019-03-22T22:00:26.420Z,95.80
2019-03-22T22:03:31.110Z,95.90
2019-03-22T22:06:35.544Z,95.90
2019-03-22T22:09:39.992Z,96.20
2019-03-22T22:12:44.684Z,96.20
2019-03-22T22:15:49.130Z,96.20
2019-03-22T22:18:53.841Z,96.30
2019-03-22T22:21:58.286Z,96.00
2019-03-22T22:25:02.986Z,96.20
2019-03-22T22:28:07.729Z,96.10
2019-03-22T22:31:12.161Z,96.20
2019-03-22T22:34:16.601Z,96.40
2019-03-22T22:37:21.035Z,96.30
2019-03-22T22:40:25.722Z,96.30
2019-03-22T22:43:32.881Z,96.50
2019-03-22T22:46:37.442Z,96.70
2019-03-22T22:49:41.889Z,97.00
2019-03-22T22:52:46.596Z,97.00
2019-03-22T22:55:51.325Z,96.80
2019-03-22T22:58:55.774Z,96.80
2019-03-22T23:02:00.483Z,96.90
2019-03-22T23:05:06.458Z,97.10
2019-03-22T23:08:10.895Z,97.00
2019-03-22T23:11:15.507Z,97.20
2019-03-22T23:14:19.949Z,96.90
2019-03-22T23:17:24.648Z,96.60
2019-03-22T23:20:29.095Z,96.60
2019-03-22T23:23:33.530Z,96.70
2019-03-22T23:26:38.227Z,97.00
2019-03-22T23:29:42.952Z,97.20
2019-03-22T23:32:47.688Z,97.20
2019-03-22T23:35:52.130Z,97.40
2019-03-22T23:38:56.587Z,97.40
2019-03-22T23:42:00.999Z,97.20
2019-03-22T23:45:09.264Z,97.10
2019-03-22T23:48:13.694Z,97.30
2019-03-22T23:51:18.130Z,97.40
2019-03-22T23:54:22.847Z,97.50
2019-03-22T23:57:27.286Z,97.70
